Main page
Satellite images 15-day forecastsClimateMarine weather Cyclones Lightning AirportsFAQ Newsletter About
Weather : Europe Africa North America South America Asia Australia-Oceania Others
Languages Contact

Gloucester, England

Gloucestershire Airport Staverton

latitude: 51-54N, longitude: 002-10W, elevation: 29 m


METAR: EGBJ 241450Z 23004KT 190V270 2500 RA SCT006 OVC009 15/15 Q1012
TAF: EGBJ 241450Z 2415/2419 25009KT 9999 SCT020 TEMPO 2415/2417 3000 RADZ BKN005

Time: 16:21 (15:21 UTC)

Current weather observation

The report was made 31 minutes ago, at 14:50 UTC
Wind 4 kt from the Southwest, varying between South and West
Temperature 15°C
Humidity 100%
Pressure 1012 hPa
Visibility: 2500 m
Scattered clouds at a height of 600 ft
Overcast at a height of 900 ft
rain

Change units

Forecast

The report was made 31 minutes ago, at 14:50 UTC
Forecast valid from 24 at 15 UTC to 24 at 19 UTC
Wind 9 kt from the West/Southwest
Visibility 10 km or more
Scattered clouds at a height of 2000 ft
Temporary
from 24 at 15 UTC to 24 at 17 UTC
Visibility: 3000 m
Broken clouds at a height of 500 ft
rain drizzle
The information on this site is subject to a disclaimer
Weather : Europe Africa North America South America Asia Australia-Oceania Others
Satellite images 15-day forecastsClimateMarine weather Cyclones Lightning AirportsFAQ Languages Contact Newsletter About